Time;durP1;ratioP1;P1;durP2;ratioP2;P2;SDS_P1;SDS_P2;PMS_P1;PMS_P2;Temp;Humidity;BMP_temperature;BMP_pressure;BME280_temperature;BME280_humidity;BME280_pressure;Samples;Min_cycle;Max_cycle;Signal;HPM_P1;HPM_P2
2021/08/26 00:07:55;;;;;;;9.10;8.20;;;15.60;99.90;;;;;;5013283;28;20432;-63
2021/08/26 00:10:24;;;;;;;9.47;8.47;;;15.70;99.90;;;;;;5012660;28;20475;-63
2021/08/26 00:12:52;;;;;;;11.40;8.03;;;15.60;99.90;;;;;;5012867;28;20441;-63
2021/08/26 00:15:18;;;;;;;9.47;6.90;;;15.70;99.90;;;;;;5012786;28;20453;-63
2021/08/26 00:17:45;;;;;;;9.10;7.53;;;15.60;99.90;;;;;;5012844;28;20420;-63
2021/08/26 00:20:11;;;;;;;8.80;8.00;;;15.60;99.90;;;;;;5012363;28;20632;-63
2021/08/26 00:22:37;;;;;;;10.60;8.53;;;15.50;99.90;;;;;;5012017;28;20492;-63
2021/08/26 00:25:03;;;;;;;9.07;7.97;;;15.50;99.90;;;;;;5012725;28;20903;-63
2021/08/26 00:27:29;;;;;;;10.17;8.47;;;15.40;99.90;;;;;;5012732;28;20216;-63
2021/08/26 00:29:54;;;;;;;8.73;7.83;;;15.40;99.90;;;;;;5012286;28;20505;-63
2021/08/26 00:32:20;;;;;;;10.03;7.77;;;15.40;99.90;;;;;;5012521;28;20249;-63
2021/08/26 00:34:45;;;;;;;10.73;8.33;;;15.30;99.90;;;;;;5012438;28;20256;-63
2021/08/26 00:37:11;;;;;;;9.03;8.10;;;15.20;99.90;;;;;;5012502;28;20171;-63
2021/08/26 00:39:36;;;;;;;10.03;8.10;;;15.20;99.90;;;;;;5012442;28;20194;-63
2021/08/26 00:42:04;;;;;;;9.30;7.70;;;15.10;99.90;;;;;;5012731;28;20238;-63
2021/08/26 00:44:29;;;;;;;9.20;7.77;;;15.00;99.90;;;;;;5011103;28;20199;-63
2021/08/26 00:46:55;;;;;;;9.70;7.87;;;15.00;99.90;;;;;;5012384;28;20410;-63
2021/08/26 00:49:20;;;;;;;8.70;7.80;;;15.00;99.90;;;;;;5011972;28;20207;-63
2021/08/26 00:51:46;;;;;;;9.10;8.20;;;14.90;99.90;;;;;;5011085;28;20182;-63
2021/08/26 00:54:13;;;;;;;7.47;6.70;;;14.80;99.90;;;;;;5012186;28;20577;-63
2021/08/26 00:56:39;;;;;;;10.80;8.57;;;14.70;99.90;;;;;;5012459;28;20460;-63
2021/08/26 00:59:06;;;;;;;9.50;8.60;;;14.60;99.90;;;;;;5011902;28;20414;-63
2021/08/26 01:01:56;;;;;;;8.67;7.77;;;14.60;99.90;;;;;;5012286;28;20942;-63
2021/08/26 01:04:37;;;;;;;8.93;8.03;;;14.60;99.90;;;;;;5012147;28;21009;-63
2021/08/26 01:07:09;;;;;;;10.17;8.67;;;14.50;99.90;;;;;;5012206;28;20452;-63
2021/08/26 01:09:43;;;;;;;9.90;8.93;;;14.50;99.90;;;;;;5011920;28;20424;-63
2021/08/26 01:12:13;;;;;;;9.77;8.77;;;14.40;99.90;;;;;;5012096;28;20456;-63
2021/08/26 01:14:40;;;;;;;9.17;8.07;;;14.40;99.90;;;;;;5012115;28;20457;-63
2021/08/26 01:17:07;;;;;;;10.20;9.07;;;14.40;99.90;;;;;;5012111;28;20424;-63
2021/08/26 01:19:32;;;;;;;9.30;8.40;;;14.30;99.90;;;;;;5011814;28;20425;-63
2021/08/26 01:21:58;;;;;;;11.63;8.03;;;14.20;99.90;;;;;;5011991;28;20414;-63
2021/08/26 01:24:28;;;;;;;9.37;8.37;;;14.20;99.90;;;;;;5011947;28;20202;-63
2021/08/26 01:26:55;;;;;;;9.17;8.30;;;14.10;99.90;;;;;;5011981;28;20644;-63
2021/08/26 01:29:22;;;;;;;9.80;8.20;;;14.10;99.90;;;;;;5010652;28;20540;-63
2021/08/26 01:31:48;;;;;;;8.90;8.03;;;14.10;99.90;;;;;;5011934;28;20460;-63
2021/08/26 01:34:15;;;;;;;11.37;8.53;;;14.10;99.90;;;;;;5015239;28;20981;-63
2021/08/26 01:36:41;;;;;;;9.27;8.37;;;14.00;99.90;;;;;;5015801;28;20629;-63
2021/08/26 01:39:09;;;;;;;9.47;8.47;;;14.10;99.90;;;;;;5015547;28;20425;-63
2021/08/26 01:41:55;;;;;;;9.60;8.67;;;14.00;99.90;;;;;;5015675;28;20174;-63
2021/08/26 01:44:24;;;;;;;10.53;8.07;;;14.10;99.90;;;;;;5015554;28;20445;-63
2021/08/26 01:47:04;;;;;;;10.10;7.80;;;14.10;99.90;;;;;;5015673;28;20422;-63
2021/08/26 01:49:30;;;;;;;9.53;8.53;;;14.00;99.90;;;;;;5015299;28;20935;-63
2021/08/26 01:51:55;;;;;;;10.37;8.77;;;14.00;99.90;;;;;;5015452;28;20413;-63
2021/08/26 01:54:21;;;;;;;10.17;9.03;;;14.00;99.90;;;;;;5015552;28;20202;-63
2021/08/26 01:56:47;;;;;;;9.77;7.70;;;13.90;99.90;;;;;;5015486;28;20171;-63
2021/08/26 01:59:13;;;;;;;11.00;8.77;;;13.90;99.90;;;;;;5015200;28;20593;-63
2021/08/26 02:01:39;;;;;;;9.80;8.40;;;13.90;99.90;;;;;;5015472;28;20414;-63
2021/08/26 02:04:05;;;;;;;10.13;8.90;;;13.90;99.90;;;;;;5015218;28;20242;-63
2021/08/26 02:06:30;;;;;;;8.80;7.40;;;13.80;99.90;;;;;;5015125;28;20461;-63
2021/08/26 02:08:56;;;;;;;9.07;8.20;;;13.80;99.90;;;;;;5015119;28;20174;-63
2021/08/26 02:11:21;;;;;;;10.07;8.53;;;13.80;99.90;;;;;;5015220;28;20167;-63
2021/08/26 02:13:47;;;;;;;10.43;8.97;;;13.80;99.90;;;;;;5015024;28;20234;-63
2021/08/26 02:16:14;;;;;;;10.27;9.23;;;13.80;99.90;;;;;;5015143;28;20171;-63
2021/08/26 02:18:41;;;;;;;9.77;8.77;;;13.80;99.90;;;;;;5014784;28;20171;-63
2021/08/26 02:21:07;;;;;;;9.77;8.60;;;13.80;99.90;;;;;;5014856;28;20417;-63
2021/08/26 02:23:32;;;;;;;10.47;7.50;;;13.80;99.90;;;;;;5014821;28;20453;-63
2021/08/26 02:25:58;;;;;;;9.87;8.10;;;13.80;99.90;;;;;;5015088;28;20190;-63
2021/08/26 02:28:23;;;;;;;9.33;8.50;;;13.80;99.90;;;;;;5014624;28;20637;-62
2021/08/26 02:30:49;;;;;;;9.73;8.57;;;13.70;99.90;;;;;;5014716;28;20175;-63
2021/08/26 02:33:14;;;;;;;8.17;7.43;;;13.70;99.90;;;;;;5014731;28;20186;-63
2021/08/26 02:35:40;;;;;;;10.80;8.93;;;13.70;99.90;;;;;;5014634;28;20194;-63
2021/08/26 02:38:05;;;;;;;9.00;8.10;;;13.60;99.90;;;;;;5014605;28;20179;-63
2021/08/26 02:40:31;;;;;;;14.33;9.60;;;13.60;99.90;;;;;;5014347;28;20175;-63
2021/08/26 02:42:56;;;;;;;9.90;8.90;;;13.60;99.90;;;;;;5014548;28;20250;-63
2021/08/26 02:45:22;;;;;;;10.43;8.27;;;13.50;99.90;;;;;;5013714;28;20245;-63
2021/08/26 02:47:48;;;;;;;9.43;8.10;;;13.60;99.90;;;;;;5014510;28;20179;-63
2021/08/26 02:50:14;;;;;;;9.30;8.40;;;13.50;99.90;;;;;;5014040;28;20417;-63
2021/08/26 02:52:39;;;;;;;9.73;8.03;;;13.40;99.90;;;;;;5014296;28;20203;-63
2021/08/26 02:55:05;;;;;;;12.30;9.90;;;13.40;99.90;;;;;;5014350;28;20207;-63
2021/08/26 02:57:30;;;;;;;10.83;8.47;;;13.40;99.90;;;;;;5014266;28;20644;-63
2021/08/26 02:59:56;;;;;;;9.40;8.40;;;13.40;99.90;;;;;;5013917;28;20205;-63
2021/08/26 03:02:21;;;;;;;9.60;8.57;;;13.40;99.90;;;;;;5014053;28;20385;-63
2021/08/26 03:04:47;;;;;;;9.23;8.23;;;13.60;99.90;;;;;;5014151;28;20193;-63
2021/08/26 03:07:13;;;;;;;9.87;8.97;;;13.60;99.90;;;;;;5014049;28;20183;-63
2021/08/26 03:09:38;;;;;;;13.67;8.53;;;13.60;99.90;;;;;;5013856;28;20655;-63
2021/08/26 03:12:05;;;;;;;11.07;9.30;;;13.60;99.90;;;;;;5014031;28;20207;-62
2021/08/26 03:14:31;;;;;;;8.63;7.77;;;13.60;99.90;;;;;;5013857;28;20211;-63
2021/08/26 03:16:57;;;;;;;9.93;8.53;;;13.60;99.90;;;;;;5013960;28;20797;-63
2021/08/26 03:19:22;;;;;;;11.50;8.20;;;13.70;99.90;;;;;;5013465;28;20421;-63
2021/08/26 03:21:48;;;;;;;11.77;8.53;;;13.70;99.90;;;;;;5013813;28;20225;-63
2021/08/26 03:24:13;;;;;;;9.13;8.10;;;13.80;99.90;;;;;;5013780;28;20544;-63
2021/08/26 03:26:39;;;;;;;10.67;7.40;;;13.80;99.90;;;;;;5013759;28;20660;-63
2021/08/26 03:29:04;;;;;;;9.70;7.83;;;13.80;99.90;;;;;;5013773;28;20625;-63
2021/08/26 03:31:30;;;;;;;8.23;7.43;;;13.90;99.90;;;;;;5013720;28;20179;-63
2021/08/26 03:33:56;;;;;;;12.93;9.20;;;13.90;99.90;;;;;;5013387;28;20692;-63
2021/08/26 03:36:26;;;;;;;12.67;8.10;;;13.90;99.90;;;;;;5013496;28;20257;-63
2021/08/26 03:38:52;;;;;;;9.30;8.40;;;13.90;99.90;;;;;;5013276;28;20167;-63
2021/08/26 03:41:17;;;;;;;10.03;8.87;;;13.90;99.90;;;;;;5013488;28;20430;-63
2021/08/26 03:43:43;;;;;;;8.30;7.50;;;13.90;99.90;;;;;;5013485;28;20491;-63
2021/08/26 03:46:08;;;;;;;10.43;9.33;;;13.90;99.90;;;;;;5013454;28;20167;-63
2021/08/26 03:48:34;;;;;;;11.10;8.10;;;13.90;99.90;;;;;;5013004;28;20178;-62
2021/08/26 03:51:01;;;;;;;8.70;7.67;;;13.90;99.90;;;;;;5013278;28;20257;-63
2021/08/26 03:53:27;;;;;;;8.90;8.00;;;14.00;99.90;;;;;;5012530;28;20684;-63
2021/08/26 03:55:52;;;;;;;9.70;8.70;;;14.00;99.90;;;;;;5012518;28;20417;-63
2021/08/26 03:58:18;;;;;;;11.40;9.00;;;13.90;99.90;;;;;;5012940;28;20565;-63
2021/08/26 04:00:43;;;;;;;10.07;8.87;;;14.00;99.90;;;;;;5012972;28;20601;-63
2021/08/26 04:03:09;;;;;;;8.83;7.97;;;14.00;99.90;;;;;;5013478;28;20629;-62
2021/08/26 04:05:34;;;;;;;8.40;7.57;;;14.00;99.90;;;;;;5013008;28;20186;-62
2021/08/26 04:07:59;;;;;;;16.90;9.00;;;14.00;99.90;;;;;;5012978;28;20179;-62
2021/08/26 04:10:25;;;;;;;10.17;9.23;;;14.00;99.90;;;;;;5011449;28;20471;-62
2021/08/26 04:12:51;;;;;;;9.77;8.80;;;14.00;99.90;;;;;;5012897;28;20222;-63
2021/08/26 04:15:16;;;;;;;11.23;9.87;;;14.00;99.90;;;;;;5012795;28;20206;-62
2021/08/26 04:17:42;;;;;;;8.93;8.13;;;13.90;99.90;;;;;;5012844;28;20222;-62
2021/08/26 04:20:08;;;;;;;8.30;7.50;;;13.90;99.90;;;;;;5012489;28;20182;-62
2021/08/26 04:22:33;;;;;;;9.50;8.17;;;13.90;99.90;;;;;;5012618;28;20191;-62
2021/08/26 04:24:59;;;;;;;10.67;8.57;;;13.90;99.90;;;;;;5012746;28;20465;-62
2021/08/26 04:27:24;;;;;;;9.97;8.90;;;14.00;99.90;;;;;;5012720;28;20175;-62
2021/08/26 04:29:50;;;;;;;8.83;8.00;;;14.00;99.90;;;;;;5012393;28;20667;-62
2021/08/26 04:32:15;;;;;;;9.03;7.83;;;14.00;99.90;;;;;;5012594;28;20175;-62
2021/08/26 04:34:41;;;;;;;9.77;8.43;;;14.00;99.90;;;;;;5012505;28;20691;-62
2021/08/26 04:37:06;;;;;;;8.23;7.37;;;14.10;99.90;;;;;;5012511;28;20641;-63
2021/08/26 04:39:32;;;;;;;8.80;8.00;;;14.10;99.90;;;;;;5012503;28;20201;-62
2021/08/26 04:41:57;;;;;;;10.77;9.10;;;14.10;99.90;;;;;;5012544;28;20167;-62
2021/08/26 04:44:23;;;;;;;9.53;8.37;;;14.20;99.90;;;;;;5012362;28;20687;-62
2021/08/26 04:46:48;;;;;;;10.13;9.10;;;14.20;99.90;;;;;;5012498;28;20273;-62
2021/08/26 04:49:14;;;;;;;9.33;8.33;;;14.10;99.90;;;;;;5012059;28;20217;-62
2021/08/26 04:51:39;;;;;;;11.57;9.20;;;14.10;99.90;;;;;;5011690;28;20228;-63
2021/08/26 04:54:05;;;;;;;10.40;9.43;;;14.20;99.90;;;;;;5012225;28;20202;-62
2021/08/26 04:56:30;;;;;;;10.47;9.47;;;14.20;99.90;;;;;;5012289;28;20225;-62
2021/08/26 04:58:56;;;;;;;10.10;9.00;;;14.30;99.90;;;;;;5011886;28;20262;-63
2021/08/26 05:01:22;;;;;;;10.73;9.63;;;14.40;99.90;;;;;;5012274;28;20187;-62
2021/08/26 05:03:47;;;;;;;10.70;9.00;;;14.40;99.90;;;;;;5011923;28;20211;-62
2021/08/26 05:06:13;;;;;;;11.90;8.93;;;14.40;99.90;;;;;;5012151;28;20684;-62
2021/08/26 05:08:38;;;;;;;10.43;9.43;;;14.40;99.90;;;;;;5011541;28;20178;-62
2021/08/26 05:11:04;;;;;;;10.37;9.23;;;14.60;99.90;;;;;;5012188;28;20171;-62
2021/08/26 05:13:29;;;;;;;8.57;7.60;;;14.70;99.90;;;;;;5011940;28;20210;-62
2021/08/26 05:15:55;;;;;;;9.93;8.93;;;14.80;99.90;;;;;;5012119;28;20216;-62
2021/08/26 05:18:20;;;;;;;9.20;8.00;;;14.80;99.90;;;;;;5011898;28;20656;-63
2021/08/26 05:20:46;;;;;;;13.63;9.23;;;14.80;99.90;;;;;;5011811;28;20245;-62
2021/08/26 05:23:11;;;;;;;9.50;8.43;;;14.80;99.90;;;;;;5011981;28;20194;-62
2021/08/26 05:25:37;;;;;;;9.33;8.30;;;14.70;99.90;;;;;;5012120;28;20658;-62
2021/08/26 05:28:03;;;;;;;10.27;9.23;;;14.50;99.90;;;;;;5011962;28;20171;-62
2021/08/26 05:30:28;;;;;;;11.27;9.90;;;14.40;99.90;;;;;;5011752;28;20612;-62
2021/08/26 05:32:55;;;;;;;8.70;7.60;;;14.40;99.90;;;;;;5011821;28;20195;-62
2021/08/26 05:35:20;;;;;;;14.63;9.43;;;14.40;99.90;;;;;;5011807;28;20194;-62
2021/08/26 05:37:46;;;;;;;9.80;8.80;;;14.60;99.90;;;;;;5011882;28;20414;-62
2021/08/26 05:40:11;;;;;;;9.10;8.20;;;14.70;99.90;;;;;;5011661;28;20243;-62
2021/08/26 05:42:38;;;;;;;11.40;8.23;;;14.80;99.90;;;;;;5011817;28;20190;-62
2021/08/26 05:45:04;;;;;;;11.97;9.17;;;15.00;99.90;;;;;;5011871;28;20167;-62
2021/08/26 05:47:29;;;;;;;9.33;8.43;;;15.00;99.90;;;;;;5011728;28;20434;-62
2021/08/26 05:49:55;;;;;;;10.13;9.13;;;15.10;99.90;;;;;;5011390;28;20520;-62
2021/08/26 05:52:20;;;;;;;9.97;9.07;;;15.20;99.90;;;;;;5011203;28;20210;-62
2021/08/26 05:54:46;;;;;;;9.70;8.73;;;15.30;99.90;;;;;;5011739;28;20677;-62
2021/08/26 05:57:11;;;;;;;11.07;9.87;;;15.30;99.90;;;;;;5011742;28;20171;-62
2021/08/26 05:59:37;;;;;;;9.97;8.97;;;15.30;99.90;;;;;;5011285;28;20213;-62
2021/08/26 06:02:02;;;;;;;10.00;8.90;;;15.40;99.90;;;;;;5011568;28;20167;-62
2021/08/26 06:04:28;;;;;;;13.93;12.20;;;15.30;99.90;;;;;;5011824;28;20665;-62
2021/08/26 06:06:53;;;;;;;11.20;10.00;;;15.40;99.90;;;;;;5011621;28;20175;-63
2021/08/26 06:09:19;;;;;;;10.10;9.10;;;15.40;99.90;;;;;;5011316;28;20183;-62
2021/08/26 06:11:45;;;;;;;11.60;8.90;;;15.40;99.90;;;;;;5011513;28;20210;-62
2021/08/26 06:14:11;;;;;;;12.07;9.70;;;15.40;99.90;;;;;;5011338;28;20206;-62
2021/08/26 06:16:37;;;;;;;10.47;9.40;;;15.40;99.90;;;;;;5011432;28;20429;-63
2021/08/26 06:19:03;;;;;;;9.57;8.70;;;15.50;99.90;;;;;;5011214;28;20918;-62
2021/08/26 06:21:28;;;;;;;10.70;9.20;;;15.60;99.90;;;;;;5014909;28;20217;-62
2021/08/26 06:23:54;;;;;;;11.17;9.87;;;15.70;99.90;;;;;;5014947;28;20217;-62
2021/08/26 06:26:19;;;;;;;9.27;8.37;;;15.70;99.90;;;;;;5014998;28;20191;-62
2021/08/26 06:28:45;;;;;;;10.30;8.90;;;15.70;99.90;;;;;;5014722;28;20419;-62
2021/08/26 06:31:11;;;;;;;10.37;9.30;;;15.70;99.90;;;;;;5014694;28;20179;-63
2021/08/26 06:33:36;;;;;;;9.83;8.93;;;15.60;99.90;;;;;;5014686;28;20703;-62
2021/08/26 06:36:02;;;;;;;14.33;9.20;;;15.70;99.90;;;;;;5014751;28;20818;-62
2021/08/26 06:38:28;;;;;;;10.50;9.37;;;15.70;99.90;;;;;;5014449;28;20652;-62
2021/08/26 06:40:54;;;;;;;9.83;8.80;;;15.70;99.90;;;;;;5014717;28;20178;-62
2021/08/26 06:43:19;;;;;;;8.70;7.90;;;15.70;99.90;;;;;;5014549;28;20187;-62
2021/08/26 06:45:45;;;;;;;8.63;7.83;;;15.80;99.90;;;;;;5014419;28;20327;-61
2021/08/26 06:48:10;;;;;;;8.47;7.67;;;15.80;99.90;;;;;;5014649;28;20183;-63
2021/08/26 06:50:36;;;;;;;12.30;9.20;;;15.80;99.90;;;;;;5014440;28;20175;-62
2021/08/26 06:53:01;;;;;;;10.87;8.80;;;15.80;99.90;;;;;;5013835;28;20581;-62
2021/08/26 06:55:27;;;;;;;10.67;9.57;;;15.70;99.90;;;;;;5014264;28;20208;-62
2021/08/26 06:57:52;;;;;;;10.77;9.83;;;15.70;99.90;;;;;;5014526;28;20179;-62
2021/08/26 07:00:18;;;;;;;9.77;8.40;;;15.70;99.90;;;;;;5013949;28;20175;-62
2021/08/26 07:02:44;;;;;;;11.90;8.70;;;15.70;99.90;;;;;;5014134;28;20301;-62
2021/08/26 07:05:11;;;;;;;11.10;9.40;;;15.80;99.90;;;;;;5014162;28;20171;-62
2021/08/26 07:07:37;;;;;;;10.80;8.03;;;15.70;99.90;;;;;;5014213;28;20681;-62
2021/08/26 07:10:04;;;;;;;10.73;8.43;;;15.70;99.90;;;;;;5013838;28;20888;-62
2021/08/26 07:12:33;;;;;;;12.03;10.77;;;15.70;99.90;;;;;;5013962;28;20202;-62
2021/08/26 07:14:59;;;;;;;11.47;10.23;;;15.70;99.90;;;;;;5013820;28;20970;-62
2021/08/26 07:17:25;;;;;;;11.40;9.63;;;15.70;99.90;;;;;;5013985;28;20413;-62
2021/08/26 07:19:51;;;;;;;12.47;10.80;;;15.70;99.90;;;;;;5013624;28;20410;-62
2021/08/26 07:22:16;;;;;;;12.73;10.63;;;15.70;99.90;;;;;;5013795;28;20422;-62
2021/08/26 07:24:42;;;;;;;13.10;11.10;;;15.70;99.90;;;;;;5013780;28;20175;-63
2021/08/26 07:27:09;;;;;;;13.07;11.80;;;15.80;99.90;;;;;;5013825;28;20633;-62
2021/08/26 07:29:34;;;;;;;14.70;11.20;;;15.70;99.90;;;;;;5013400;28;20181;-62
2021/08/26 07:32:00;;;;;;;11.53;9.80;;;15.80;99.90;;;;;;5013455;28;20496;-62
2021/08/26 07:34:25;;;;;;;13.50;11.30;;;15.80;99.90;;;;;;5013499;28;20214;-63
2021/08/26 07:36:51;;;;;;;14.40;11.47;;;15.90;99.90;;;;;;5013635;28;20199;-62
2021/08/26 07:39:16;;;;;;;14.43;11.77;;;16.10;99.90;;;;;;5013182;28;20257;-62
2021/08/26 07:41:42;;;;;;;13.40;12.00;;;16.10;99.90;;;;;;5013526;28;20254;-63
2021/08/26 07:44:07;;;;;;;12.47;11.27;;;16.20;99.90;;;;;;5013305;28;20195;-62
2021/08/26 07:46:33;;;;;;;12.17;10.97;;;16.30;99.90;;;;;;5013408;28;20178;-62
2021/08/26 07:48:58;;;;;;;13.23;11.30;;;16.50;99.90;;;;;;5013111;28;20191;-62
2021/08/26 07:51:24;;;;;;;15.03;13.43;;;16.60;99.90;;;;;;5013283;28;20171;-62
2021/08/26 07:53:49;;;;;;;16.33;14.57;;;16.50;99.90;;;;;;5013109;28;20213;-62
2021/08/26 07:56:15;;;;;;;14.10;12.70;;;16.40;99.90;;;;;;5013248;28;20189;-63
2021/08/26 07:58:40;;;;;;;15.07;12.60;;;16.50;99.90;;;;;;5012942;28;20643;-62
2021/08/26 08:01:06;;;;;;;13.43;11.40;;;16.60;99.90;;;;;;5013178;28;20237;-62
2021/08/26 08:03:34;;;;;;;14.60;11.70;;;16.60;99.90;;;;;;5012940;28;20214;-63
2021/08/26 08:06:01;;;;;;;14.27;12.63;;;16.70;99.90;;;;;;5013052;28;20178;-62
2021/08/26 08:08:27;;;;;;;14.30;12.20;;;16.80;99.90;;;;;;5012698;28;20445;-63
2021/08/26 08:10:52;;;;;;;12.60;11.30;;;16.90;99.90;;;;;;5013030;28;20473;-62
2021/08/26 08:13:18;;;;;;;13.30;12.00;;;17.10;99.90;;;;;;5012908;28;20557;-62
2021/08/26 08:15:44;;;;;;;12.37;11.10;;;17.30;99.90;;;;;;5012910;28;20540;-62
2021/08/26 08:18:11;;;;;;;12.13;10.97;;;17.40;99.90;;;;;;5013223;28;20176;-62
2021/08/26 08:20:37;;;;;;;11.97;10.47;;;17.30;99.90;;;;;;5012615;28;20422;-62
2021/08/26 08:23:03;;;;;;;16.70;10.50;;;17.20;99.90;;;;;;5012735;28;20442;-62
2021/08/26 08:25:28;;;;;;;11.87;10.63;;;17.20;99.90;;;;;;5012810;28;20202;-62
2021/08/26 08:27:54;;;;;;;12.93;11.73;;;17.20;99.90;;;;;;5012782;28;20418;-62
2021/08/26 08:30:25;;;;;;;12.50;10.80;;;17.10;99.90;;;;;;5012369;28;20171;-62
2021/08/26 08:32:51;;;;;;;13.17;11.90;;;17.00;99.90;;;;;;5012663;28;20191;-62
2021/08/26 08:35:17;;;;;;;13.67;12.27;;;16.80;99.90;;;;;;5012527;28;20527;-62
2021/08/26 08:37:42;;;;;;;15.43;13.53;;;16.80;99.90;;;;;;5012507;28;20179;-63
2021/08/26 08:40:08;;;;;;;14.97;13.50;;;16.70;99.90;;;;;;5012270;28;20171;-62
2021/08/26 08:42:34;;;;;;;15.30;13.10;;;16.60;99.90;;;;;;5011845;28;20187;-62
2021/08/26 08:45:00;;;;;;;13.50;12.40;;;16.40;99.90;;;;;;5012467;28;20178;-62
2021/08/26 08:47:29;;;;;;;15.77;14.17;;;16.40;99.90;;;;;;5012460;28;20207;-62
2021/08/26 08:49:55;;;;;;;15.73;14.33;;;16.30;99.90;;;;;;5012099;28;20433;-62
2021/08/26 08:52:20;;;;;;;15.20;13.90;;;16.40;99.90;;;;;;5012185;28;20449;-62
2021/08/26 08:54:46;;;;;;;14.97;13.67;;;16.50;99.90;;;;;;5012281;28;20256;-63
2021/08/26 08:57:12;;;;;;;14.47;13.23;;;16.60;99.90;;;;;;5012369;28;20175;-62
2021/08/26 08:59:38;;;;;;;16.03;14.33;;;16.70;99.90;;;;;;5011914;28;20166;-62
2021/08/26 09:02:03;;;;;;;18.10;16.37;;;16.50;99.90;;;;;;5012178;28;20429;-62
2021/08/26 09:04:29;;;;;;;15.80;14.30;;;16.20;99.90;;;;;;5012138;28;20742;-62
2021/08/26 09:06:55;;;;;;;18.30;16.60;;;16.40;99.90;;;;;;5012092;28;20644;-62
2021/08/26 09:09:20;;;;;;;19.90;18.03;;;16.30;99.90;;;;;;5011946;28;20262;-63
2021/08/26 09:11:54;;;;;;;20.10;18.40;;;16.10;99.90;;;;;;5010919;28;20225;-62
2021/08/26 09:14:24;;;;;;;20.23;18.20;;;15.90;99.90;;;;;;5012006;28;20202;-61
2021/08/26 09:16:51;;;;;;;22.77;20.57;;;15.80;99.90;;;;;;5012083;28;20794;-62
2021/08/26 09:19:21;;;;;;;21.67;19.47;;;15.80;99.90;;;;;;5010495;28;20421;-62
2021/08/26 09:21:48;;;;;;;22.03;19.70;;;15.80;99.90;;;;;;5012049;28;20443;-62
2021/08/26 09:24:14;;;;;;;22.50;20.30;;;15.80;99.90;;;;;;5011990;28;20446;-62
2021/08/26 09:26:42;;;;;;;23.53;21.33;;;15.70;99.90;;;;;;5012331;28;20432;-62
2021/08/26 09:29:10;;;;;;;22.10;19.87;;;15.80;99.90;;;;;;5011724;28;20167;-62
2021/08/26 09:31:36;;;;;;;20.57;18.57;;;15.90;99.90;;;;;;5011965;28;20418;-62
2021/08/26 09:34:05;;;;;;;20.00;18.17;;;16.10;99.90;;;;;;5011785;28;20468;-62
2021/08/26 09:36:36;;;;;;;21.70;19.50;;;16.00;99.90;;;;;;5011923;28;20807;-62
2021/08/26 09:39:07;;;;;;;20.13;18.20;;;16.00;99.90;;;;;;5011706;28;20410;-63
2021/08/26 09:41:44;;;;;;;18.93;17.07;;;16.10;99.90;;;;;;5011927;28;20448;-62
2021/08/26 09:44:18;;;;;;;18.93;17.30;;;16.20;99.90;;;;;;5011851;28;20441;-62
2021/08/26 09:46:46;;;;;;;18.80;17.20;;;16.10;99.90;;;;;;5012001;28;20412;-62
2021/08/26 09:49:18;;;;;;;18.60;16.87;;;16.30;99.90;;;;;;5011584;28;20541;-62
2021/08/26 09:51:45;;;;;;;17.27;15.67;;;16.30;99.90;;;;;;5011774;28;20908;-62
2021/08/26 09:54:31;;;;;;;15.17;13.87;;;16.10;99.90;;;;;;5013226;28;20511;-62
2021/08/26 09:56:58;;;;;;;16.73;15.10;;;16.00;99.90;;;;;;5015456;28;20425;-62
2021/08/26 09:59:44;;;;;;;13.20;12.00;;;16.10;99.90;;;;;;5015209;28;20418;-62
2021/08/26 10:02:11;;;;;;;12.73;11.43;;;16.10;99.90;;;;;;5015341;28;20421;-62
2021/08/26 10:04:37;;;;;;;10.70;9.80;;;16.20;99.90;;;;;;5015984;28;20484;-63
2021/08/26 10:07:03;;;;;;;9.87;9.07;;;16.40;99.90;;;;;;5015256;28;20763;-62
2021/08/26 10:09:29;;;;;;;10.10;9.10;;;16.60;99.90;;;;;;5014874;28;20432;-63
2021/08/26 10:11:55;;;;;;;8.93;8.33;;;16.50;99.90;;;;;;5015194;28;20183;-63
2021/08/26 10:14:21;;;;;;;9.13;8.33;;;16.40;99.90;;;;;;5015058;28;20822;-62
2021/08/26 10:16:47;;;;;;;7.73;7.10;;;16.30;99.90;;;;;;5015138;28;20795;-62
2021/08/26 10:19:15;;;;;;;7.23;6.67;;;16.00;99.90;;;;;;5014782;28;20472;-63
2021/08/26 10:21:45;;;;;;;7.00;6.33;;;15.90;99.90;;;;;;5015021;28;20171;-62
2021/08/26 10:24:12;;;;;;;6.60;6.00;;;15.70;99.90;;;;;;5014937;28;21007;-62
2021/08/26 10:26:41;;;;;;;6.13;5.53;;;15.70;99.90;;;;;;5014887;28;20517;-62
2021/08/26 10:29:08;;;;;;;5.40;5.00;;;15.60;99.90;;;;;;5015039;28;20776;-62
2021/08/26 10:31:35;;;;;;;5.30;4.80;;;15.60;99.90;;;;;;5014875;28;21050;-62
2021/08/26 10:34:33;;;;;;;4.17;3.87;;;15.70;99.90;;;;;;5014735;28;20488;-62
2021/08/26 10:36:58;;;;;;;3.10;2.90;;;15.70;99.90;;;;;;4981672;28;20552;-61
2021/08/26 10:39:35;;;;;;;3.70;3.40;;;15.90;99.90;;;;;;5014456;28;20508;-61
2021/08/26 10:42:19;;;;;;;3.20;3.00;;;16.00;99.90;;;;;;5014679;28;20167;-63
2021/08/26 10:44:59;;;;;;;3.90;3.60;;;16.00;99.90;;;;;;5014564;28;20413;-62
2021/08/26 10:47:48;;;;;;;3.57;3.10;;;16.00;99.90;;;;;;5014675;28;20463;-62
2021/08/26 10:50:23;;;;;;;2.80;2.60;;;16.10;99.90;;;;;;5014158;28;20433;-62
2021/08/26 10:53:00;;;;;;;2.87;2.67;;;16.30;99.90;;;;;;5014472;28;20437;-62
2021/08/26 10:55:31;;;;;;;3.90;3.50;;;16.80;99.90;;;;;;5014311;28;20962;-62
2021/08/26 10:58:22;;;;;;;3.40;3.10;;;17.30;99.90;;;;;;5014616;28;20459;-61
2021/08/26 11:01:00;;;;;;;4.67;4.00;;;17.60;99.90;;;;;;5012943;28;20421;-62
2021/08/26 11:03:35;;;;;;;4.10;3.73;;;17.70;99.90;;;;;;5014235;28;20453;-63
2021/08/26 11:06:16;;;;;;;4.40;4.00;;;17.90;99.90;;;;;;5013583;28;20805;-62
2021/08/26 11:08:44;;;;;;;5.23;4.63;;;18.30;99.90;;;;;;5013930;28;20444;-63
2021/08/26 11:11:29;;;;;;;7.43;4.77;;;19.20;99.90;;;;;;5014202;28;20410;-63
2021/08/26 11:14:03;;;;;;;8.00;5.17;;;20.60;99.90;;;;;;5013935;28;20465;-62
2021/08/26 11:16:29;;;;;;;5.37;4.43;;;21.90;99.90;;;;;;5014227;28;20929;-63
2021/08/26 11:19:15;;;;;;;5.97;4.93;;;23.10;99.90;;;;;;5013712;28;20416;-63
2021/08/26 11:21:44;;;;;;;6.70;5.00;;;23.80;99.90;;;;;;5013810;28;20235;-63
2021/08/26 11:24:15;;;;;;;5.50;5.10;;;24.50;99.90;;;;;;5013891;28;20455;-63
2021/08/26 11:26:58;;;;;;;5.67;5.17;;;24.60;99.90;;;;;;5013805;28;20907;-63
2021/08/26 11:29:23;;;;;;;6.23;5.63;;;24.10;99.90;;;;;;5013575;28;20417;-63
2021/08/26 11:31:54;;;;;;;7.40;6.00;;;24.30;99.90;;;;;;5013875;28;20428;-62
2021/08/26 11:34:23;;;;;;;7.63;5.70;;;25.10;99.90;;;;;;5013585;28;20344;-63
2021/08/26 11:37:36;;;;;;;6.17;5.67;;;24.30;99.90;;;;;;5013480;28;20425;-63
2021/08/26 11:40:10;;;;;;;7.70;6.20;;;24.00;99.90;;;;;;5013335;28;20548;-63
2021/08/26 11:42:54;;;;;;;6.80;6.20;;;23.00;99.90;;;;;;5013497;28;20448;-63
2021/08/26 11:45:22;;;;;;;8.37;7.67;;;22.10;99.90;;;;;;5013422;28;20417;-63
2021/08/26 11:47:54;;;;;;;9.00;7.30;;;21.60;99.90;;;;;;5013490;28;20426;-63
2021/08/26 11:50:38;;;;;;;7.30;6.60;;;21.10;99.90;;;;;;5013060;28;20429;-62
2021/08/26 11:53:12;;;;;;;7.00;6.30;;;20.90;99.90;;;;;;5013343;28;20449;-63
2021/08/26 11:55:40;;;;;;;7.77;7.10;;;20.20;99.90;;;;;;5013168;28;20483;-63
2021/08/26 11:58:08;;;;;;;7.80;7.10;;;20.10;99.90;;;;;;5013243;28;20414;-63
2021/08/26 12:00:38;;;;;;;7.00;6.50;;;20.20;99.90;;;;;;5012899;28;20452;-63
2021/08/26 12:03:04;;;;;;;7.60;6.77;;;20.40;99.90;;;;;;5011795;28;20457;-62
2021/08/26 12:05:30;;;;;;;6.90;6.30;;;19.90;99.90;;;;;;5013047;28;20501;-63
2021/08/26 12:07:57;;;;;;;7.20;6.40;;;19.80;99.90;;;;;;5013022;28;20206;-62
2021/08/26 12:10:29;;;;;;;7.83;7.07;;;20.50;99.90;;;;;;5012647;28;20425;-63
2021/08/26 12:13:00;;;;;;;7.33;6.60;;;20.10;99.90;;;;;;5013185;28;20456;-63
2021/08/26 12:15:39;;;;;;;6.83;6.23;;;20.60;99.90;;;;;;5012848;28;20487;-63
2021/08/26 12:18:13;;;;;;;8.13;7.43;;;20.50;99.90;;;;;;5012031;28;20413;-63
2021/08/26 12:20:46;;;;;;;8.20;7.40;;;20.30;99.90;;;;;;5012615;28;20421;-62
2021/08/26 12:23:20;;;;;;;7.83;6.83;;;20.30;99.90;;;;;;5012691;28;20430;-63
2021/08/26 12:26:09;;;;;;;8.20;7.33;;;20.00;99.90;;;;;;5012829;28;20455;-62
2021/08/26 12:28:36;;;;;;;8.07;7.27;;;19.90;99.90;;;;;;5012477;28;20460;-63
2021/08/26 12:31:07;;;;;;;7.33;6.63;;;20.20;99.90;;;;;;5012551;28;20426;-63
2021/08/26 12:33:33;;;;;;;9.40;7.43;;;20.90;99.90;;;;;;5012595;28;20450;-62
2021/08/26 12:36:01;;;;;;;6.43;5.90;;;21.40;99.90;;;;;;5012436;28;20472;-63
2021/08/26 12:38:42;;;;;;;6.57;5.97;;;21.60;99.90;;;;;;5012292;28;20191;-63
2021/08/26 12:41:14;;;;;;;7.17;6.50;;;22.40;99.90;;;;;;5012561;28;21031;-63
2021/08/26 12:43:54;;;;;;;6.80;6.20;;;23.20;99.90;;;;;;5012251;28;20495;-63
2021/08/26 12:46:28;;;;;;;7.43;6.73;;;23.10;99.90;;;;;;5012454;28;20422;-62
2021/08/26 12:49:09;;;;;;;6.73;6.10;;;23.20;99.90;;;;;;5012180;28;20423;-63
2021/08/26 12:51:36;;;;;;;8.63;7.30;;;22.70;99.90;;;;;;5012354;28;20527;-63